Time;durP1;ratioP1;P1;durP2;ratioP2;P2;SDS_P1;SDS_P2;PMS_P1;PMS_P2;Temp;Humidity;BMP_temperature;BMP_pressure;BME280_temperature;BME280_humidity;BME280_pressure;Samples;Min_cycle;Max_cycle;Signal;HPM_P1;HPM_P2
2022/04/10 00:00:17;;;;;;;0.30;0.10;;;2.10;99.90;;;;;;5055114;28;20889;-90
2022/04/10 00:02:45;;;;;;;0.30;0.10;;;2.10;99.90;;;;;;5055125;28;20502;-90
2022/04/10 00:05:12;;;;;;;0.30;0.10;;;2.10;99.90;;;;;;5065968;28;20482;-92
2022/04/10 00:07:40;;;;;;;1.27;1.13;;;2.00;99.90;;;;;;5061748;28;20463;-90
2022/04/10 00:10:08;;;;;;;0.30;0.10;;;2.00;99.90;;;;;;5054128;28;20497;-89
2022/04/10 00:12:35;;;;;;;0.30;0.10;;;2.00;99.90;;;;;;5055930;28;20838;-90
2022/04/10 00:15:04;;;;;;;0.30;0.10;;;1.90;99.90;;;;;;5060309;28;20459;-91
2022/04/10 00:17:31;;;;;;;0.30;0.10;;;1.90;99.90;;;;;;5061863;28;20575;-89
2022/04/10 00:20:00;;;;;;;0.30;0.10;;;1.80;99.90;;;;;;5064250;28;20553;-89
2022/04/10 00:22:27;;;;;;;0.30;0.10;;;1.70;99.90;;;;;;5065669;28;20463;-93
2022/04/10 00:24:54;;;;;;;0.30;0.10;;;1.70;99.90;;;;;;5065504;28;20809;-89
2022/04/10 00:27:21;;;;;;;0.67;0.67;;;1.70;99.90;;;;;;5059434;28;20985;-89
2022/04/10 00:29:48;;;;;;;0.30;0.20;;;1.80;99.90;;;;;;5056628;28;20467;-93
2022/04/10 00:32:15;;;;;;;0.30;0.10;;;1.80;99.90;;;;;;5058775;28;20447;-92
2022/04/10 00:34:42;;;;;;;0.30;0.10;;;1.80;99.90;;;;;;5062387;28;20800;-89
2022/04/10 00:37:11;;;;;;;0.30;0.20;;;1.80;99.90;;;;;;5056359;28;20452;-89
2022/04/10 00:39:38;;;;;;;0.30;0.10;;;1.90;99.90;;;;;;5056977;28;20460;-90
2022/04/10 00:42:06;;;;;;;0.30;0.10;;;2.00;99.90;;;;;;5050860;28;20529;-91
2022/04/10 00:44:34;;;;;;;0.30;0.10;;;2.10;99.90;;;;;;5053293;28;20872;-91
2022/04/10 00:47:01;;;;;;;0.30;0.10;;;2.20;99.90;;;;;;5054502;28;20468;-89
2022/04/10 00:49:28;;;;;;;0.30;0.10;;;2.30;99.90;;;;;;5065165;28;20452;-87
2022/04/10 00:51:56;;;;;;;0.30;0.20;;;2.40;99.90;;;;;;5060892;28;20460;-87
2022/04/10 00:54:25;;;;;;;0.30;0.10;;;2.40;99.90;;;;;;5054055;28;20464;-87
2022/04/10 00:56:54;;;;;;;0.30;0.10;;;2.40;99.90;;;;;;5056521;28;20471;-87
2022/04/10 00:59:22;;;;;;;0.30;0.10;;;2.50;99.90;;;;;;5061148;28;20467;-87
2022/04/10 01:01:49;;;;;;;0.30;0.10;;;2.50;99.90;;;;;;5056949;28;20567;-86
2022/04/10 01:04:17;;;;;;;0.30;0.10;;;2.40;99.90;;;;;;5051084;28;20943;-86
2022/04/10 01:06:46;;;;;;;0.30;0.10;;;2.40;99.90;;;;;;5054606;28;20979;-87
2022/04/10 01:09:13;;;;;;;0.30;0.20;;;2.40;99.90;;;;;;5054318;28;20475;-89
2022/04/10 01:11:42;;;;;;;0.30;0.10;;;2.30;99.90;;;;;;5056455;28;20509;-88
2022/04/10 01:14:09;;;;;;;0.30;0.10;;;2.20;99.90;;;;;;5050736;28;20460;-92
2022/04/10 01:16:37;;;;;;;0.30;0.10;;;2.20;99.90;;;;;;5055030;28;20928;-89
2022/04/10 01:19:06;;;;;;;0.30;0.10;;;2.10;99.90;;;;;;5054860;28;20554;-89
2022/04/10 01:21:39;;;;;;;0.30;0.10;;;2.10;99.90;;;;;;5056205;28;20492;-88
2022/04/10 01:24:10;;;;;;;0.30;0.10;;;2.10;99.90;;;;;;5059743;28;20501;-88
2022/04/10 01:26:37;;;;;;;0.30;0.10;;;2.10;99.90;;;;;;5054246;28;20448;-90
2022/04/10 01:29:06;;;;;;;0.30;0.10;;;2.10;99.90;;;;;;5050349;28;20816;-91
2022/04/10 01:31:35;;;;;;;0.30;0.10;;;2.10;99.90;;;;;;5054456;28;20444;-87
2022/04/10 01:34:05;;;;;;;0.30;0.10;;;2.10;99.90;;;;;;5052408;28;20460;-89
2022/04/10 01:36:33;;;;;;;0.30;0.10;;;2.10;99.90;;;;;;5046188;28;20467;-87
2022/04/10 01:39:02;;;;;;;0.30;0.10;;;2.10;99.90;;;;;;5050236;28;20464;-88
2022/04/10 01:41:31;;;;;;;0.30;0.10;;;2.00;99.90;;;;;;5062793;28;20483;-88
2022/04/10 01:43:59;;;;;;;0.30;0.20;;;2.00;99.90;;;;;;5059064;28;20525;-90
2022/04/10 01:46:28;;;;;;;0.30;0.10;;;2.00;99.90;;;;;;5065513;28;20498;-89
2022/04/10 01:48:55;;;;;;;0.30;0.10;;;2.10;99.90;;;;;;5072992;28;20487;-87
2022/04/10 01:51:23;;;;;;;0.30;0.10;;;2.10;99.90;;;;;;5072305;28;20463;-89
2022/04/10 01:53:51;;;;;;;0.30;0.20;;;2.20;99.90;;;;;;5058516;28;20461;-89
2022/04/10 01:56:18;;;;;;;0.30;0.10;;;2.20;99.90;;;;;;5051693;28;20785;-87
2022/04/10 01:58:48;;;;;;;0.30;0.20;;;2.30;99.90;;;;;;5062953;28;20521;-90
2022/04/10 02:01:16;;;;;;;0.30;0.10;;;2.30;99.90;;;;;;5054843;28;20480;-88
2022/04/10 02:03:45;;;;;;;0.30;0.10;;;2.40;99.90;;;;;;5060700;28;20452;-88
2022/04/10 02:06:13;;;;;;;0.30;0.10;;;2.50;99.90;;;;;;5052137;28;20461;-87
2022/04/10 02:08:42;;;;;;;0.40;0.10;;;2.50;99.90;;;;;;5060261;28;20535;-88
2022/04/10 02:11:13;;;;;;;0.30;0.10;;;2.50;99.90;;;;;;5051485;28;20463;-88
2022/04/10 02:13:40;;;;;;;0.30;0.10;;;2.50;99.90;;;;;;5048800;28;20468;-88
2022/04/10 02:16:12;;;;;;;0.30;0.20;;;2.40;99.90;;;;;;5053746;28;20470;-90
2022/04/10 02:18:39;;;;;;;0.30;0.10;;;2.40;99.90;;;;;;5047216;28;20464;-88
2022/04/10 02:21:07;;;;;;;0.30;0.20;;;2.30;99.90;;;;;;5056305;28;20490;-88
2022/04/10 02:23:34;;;;;;;0.30;0.10;;;2.20;99.90;;;;;;5055518;28;20459;-88
2022/04/10 02:26:01;;;;;;;0.33;0.20;;;2.10;99.90;;;;;;5060681;28;20476;-88
2022/04/10 02:28:28;;;;;;;0.40;0.20;;;2.10;99.90;;;;;;5060074;28;21028;-89
2022/04/10 02:30:55;;;;;;;0.30;0.20;;;2.00;99.90;;;;;;5059407;28;20546;-89
2022/04/10 02:33:24;;;;;;;0.30;0.10;;;2.00;99.90;;;;;;5055274;28;20876;-89
2022/04/10 02:35:51;;;;;;;0.30;0.10;;;2.00;99.90;;;;;;5059431;28;20467;-87
2022/04/10 02:38:19;;;;;;;0.30;0.10;;;2.00;99.90;;;;;;5062207;28;20501;-90
2022/04/10 02:40:46;;;;;;;0.30;0.10;;;2.00;99.90;;;;;;5060238;28;20497;-88
2022/04/10 02:43:14;;;;;;;0.30;0.10;;;2.00;99.90;;;;;;5058682;28;20472;-88
2022/04/10 02:45:42;;;;;;;0.30;0.10;;;2.10;99.90;;;;;;5059705;28;20816;-90
2022/04/10 02:48:09;;;;;;;0.30;0.10;;;2.20;99.90;;;;;;5055665;28;20509;-88
2022/04/10 02:50:39;;;;;;;0.30;0.10;;;2.20;99.90;;;;;;5058257;28;20946;-89
2022/04/10 02:53:07;;;;;;;0.30;0.10;;;2.20;99.90;;;;;;5045398;28;20479;-88
2022/04/10 02:55:34;;;;;;;0.30;0.10;;;2.10;99.90;;;;;;5059217;28;20451;-88
2022/04/10 02:58:01;;;;;;;0.30;0.10;;;2.20;99.90;;;;;;5052209;28;20455;-89
2022/04/10 03:00:29;;;;;;;0.33;0.20;;;2.10;99.90;;;;;;5050323;28;20526;-89
2022/04/10 03:02:56;;;;;;;0.30;0.10;;;2.10;99.90;;;;;;5052813;28;20510;-90
2022/04/10 03:05:24;;;;;;;0.30;0.10;;;2.10;99.90;;;;;;5062334;28;20471;-88
2022/04/10 03:07:52;;;;;;;0.30;0.10;;;2.00;99.90;;;;;;5057174;28;20469;-89
2022/04/10 03:10:19;;;;;;;0.30;0.10;;;2.00;99.90;;;;;;5054088;28;20964;-88
2022/04/10 03:12:46;;;;;;;0.67;0.60;;;1.90;99.90;;;;;;5050297;28;20531;-88
2022/04/10 03:15:13;;;;;;;0.30;0.10;;;1.90;99.90;;;;;;5053091;28;20521;-88
2022/04/10 03:17:40;;;;;;;0.30;0.10;;;1.80;99.90;;;;;;5054607;28;20518;-91
2022/04/10 03:20:11;;;;;;;0.30;0.10;;;1.70;99.90;;;;;;5053055;28;20480;-93
2022/04/10 03:22:38;;;;;;;0.30;0.10;;;1.70;99.90;;;;;;5056146;28;20493;-89
2022/04/10 03:25:08;;;;;;;0.30;0.10;;;1.90;99.90;;;;;;5054510;28;20529;-88
2022/04/10 03:27:35;;;;;;;0.30;0.17;;;2.10;99.90;;;;;;5045312;28;20452;-89
2022/04/10 03:30:02;;;;;;;0.30;0.10;;;2.20;99.90;;;;;;5059943;28;20483;-92
2022/04/10 03:32:29;;;;;;;0.30;0.10;;;2.30;99.90;;;;;;5048700;28;20525;-89
2022/04/10 03:34:56;;;;;;;0.30;0.10;;;2.40;99.90;;;;;;5073505;28;20562;-87
2022/04/10 03:37:23;;;;;;;0.30;0.10;;;2.50;99.90;;;;;;5063683;28;21005;-89
2022/04/10 03:39:51;;;;;;;0.30;0.10;;;2.50;99.90;;;;;;5059569;28;20466;-88
2022/04/10 03:42:19;;;;;;;0.30;0.10;;;2.60;99.90;;;;;;5048524;28;20484;-90
2022/04/10 03:44:46;;;;;;;0.30;0.10;;;2.60;99.90;;;;;;5054494;28;21018;-91
2022/04/10 03:47:13;;;;;;;0.30;0.10;;;2.70;99.90;;;;;;5062127;28;20460;-88
2022/04/10 03:49:40;;;;;;;0.30;0.10;;;2.70;99.90;;;;;;5064403;28;20457;-89
2022/04/10 03:52:08;;;;;;;0.30;0.17;;;2.70;99.90;;;;;;5066368;28;20476;-89
2022/04/10 03:54:35;;;;;;;0.30;0.10;;;2.60;99.90;;;;;;5066185;28;20463;-89
2022/04/10 03:57:02;;;;;;;0.57;0.57;;;2.60;99.90;;;;;;5069939;28;20537;-88
2022/04/10 03:59:31;;;;;;;0.30;0.10;;;2.60;99.90;;;;;;5058775;28;20546;-87
2022/04/10 04:01:58;;;;;;;0.30;0.10;;;2.50;99.90;;;;;;5058234;28;20483;-89
2022/04/10 04:04:25;;;;;;;0.30;0.10;;;2.50;99.90;;;;;;5060029;28;20475;-89
2022/04/10 04:06:52;;;;;;;0.30;0.20;;;2.60;99.90;;;;;;5052044;28;20461;-89
2022/04/10 04:09:19;;;;;;;0.30;0.10;;;2.70;99.90;;;;;;5051099;28;20461;-90
2022/04/10 04:11:46;;;;;;;0.30;0.10;;;2.60;99.90;;;;;;5054299;28;20509;-91
2022/04/10 04:14:13;;;;;;;0.30;0.10;;;2.60;99.90;;;;;;5049891;28;20467;-89
2022/04/10 04:16:41;;;;;;;0.30;0.10;;;2.50;99.90;;;;;;5050568;28;20969;-89
2022/04/10 04:19:09;;;;;;;0.80;0.80;;;2.50;99.90;;;;;;5051185;28;20518;-89
2022/04/10 04:21:36;;;;;;;0.30;0.10;;;2.40;99.90;;;;;;5052981;28;20563;-91
2022/04/10 04:24:03;;;;;;;0.30;0.20;;;2.40;99.90;;;;;;5072216;28;20540;-88
2022/04/10 04:26:30;;;;;;;0.30;0.10;;;2.50;99.90;;;;;;5078325;28;20470;-87
2022/04/10 04:28:57;;;;;;;0.30;0.10;;;2.50;99.90;;;;;;5077952;28;20507;-89
2022/04/10 04:31:24;;;;;;;0.30;0.10;;;2.50;99.90;;;;;;5071394;28;20796;-89
2022/04/10 04:33:52;;;;;;;0.30;0.10;;;2.60;99.90;;;;;;5063865;28;20456;-89
2022/04/10 04:36:20;;;;;;;0.30;0.10;;;2.60;99.90;;;;;;5061133;28;20476;-89
2022/04/10 04:38:47;;;;;;;0.30;0.10;;;2.70;99.90;;;;;;5058402;28;21135;-88
2022/04/10 04:41:14;;;;;;;0.30;0.10;;;2.70;99.90;;;;;;5048787;28;20483;-89
2022/04/10 04:43:41;;;;;;;0.30;0.10;;;2.80;99.90;;;;;;5055274;28;20522;-90
2022/04/10 04:46:08;;;;;;;0.30;0.10;;;2.80;99.90;;;;;;5056283;28;20464;-90
2022/04/10 04:48:35;;;;;;;0.30;0.10;;;2.80;99.90;;;;;;5061476;28;20891;-87
2022/04/10 04:51:03;;;;;;;0.30;0.10;;;2.80;99.90;;;;;;5061307;28;20460;-87
2022/04/10 04:53:30;;;;;;;0.30;0.10;;;2.80;99.90;;;;;;5064033;28;20497;-87
2022/04/10 04:55:57;;;;;;;0.40;0.30;;;2.80;99.90;;;;;;5057438;28;20515;-87
2022/04/10 04:58:24;;;;;;;0.30;0.10;;;2.80;99.90;;;;;;5052891;28;20461;-87
2022/04/10 05:00:52;;;;;;;0.70;0.70;;;2.80;99.90;;;;;;5048237;28;20533;-88
2022/04/10 05:03:20;;;;;;;0.30;0.10;;;2.90;99.90;;;;;;5054623;28;20481;-86
2022/04/10 05:05:48;;;;;;;0.30;0.10;;;2.80;99.90;;;;;;5056997;28;20536;-90
2022/04/10 05:08:19;;;;;;;0.30;0.10;;;2.90;99.90;;;;;;5054203;28;20464;-90
2022/04/10 05:10:47;;;;;;;0.30;0.10;;;2.80;99.90;;;;;;5054113;28;20464;-83
2022/04/10 05:13:14;;;;;;;0.30;0.10;;;2.90;99.90;;;;;;5048310;28;20530;-86
2022/04/10 05:15:42;;;;;;;0.30;0.10;;;3.00;99.90;;;;;;5056175;28;20517;-85
2022/04/10 05:18:09;;;;;;;0.30;0.10;;;3.00;99.90;;;;;;5050229;28;20472;-86
2022/04/10 05:20:37;;;;;;;0.30;0.10;;;3.10;99.90;;;;;;5057273;28;20530;-86
2022/04/10 05:23:04;;;;;;;0.30;0.10;;;3.00;99.90;;;;;;5052194;28;20886;-85
2022/04/10 05:25:32;;;;;;;0.30;0.10;;;3.00;99.90;;;;;;5048413;28;20569;-88
2022/04/10 05:27:59;;;;;;;0.30;0.20;;;3.10;99.90;;;;;;5035982;28;20560;-85
2022/04/10 05:30:26;;;;;;;0.30;0.20;;;3.20;99.90;;;;;;5043730;28;20464;-86
2022/04/10 05:32:53;;;;;;;0.30;0.20;;;3.20;99.90;;;;;;5046053;28;21259;-86
2022/04/10 05:35:20;;;;;;;0.30;0.10;;;3.20;99.90;;;;;;5045517;28;20926;-86
2022/04/10 05:37:47;;;;;;;0.30;0.10;;;3.20;99.90;;;;;;5044039;28;20855;-86
2022/04/10 05:40:14;;;;;;;0.30;0.20;;;3.30;99.90;;;;;;5047475;28;20465;-85
2022/04/10 05:42:45;;;;;;;0.30;0.10;;;3.40;99.90;;;;;;5039829;28;20481;-86
2022/04/10 05:45:13;;;;;;;0.30;0.10;;;3.40;99.90;;;;;;5039320;28;20457;-86
2022/04/10 05:47:41;;;;;;;0.30;0.10;;;3.40;99.90;;;;;;5046688;28;20464;-86
2022/04/10 05:50:10;;;;;;;0.30;0.20;;;3.40;99.90;;;;;;5064016;28;20459;-86
2022/04/10 05:52:38;;;;;;;0.30;0.10;;;3.50;99.90;;;;;;5050602;28;20560;-86
2022/04/10 05:55:06;;;;;;;0.30;0.10;;;3.50;99.90;;;;;;5049264;28;20935;-86
2022/04/10 05:57:33;;;;;;;0.30;0.10;;;3.40;99.90;;;;;;5040988;28;20468;-86
2022/04/10 06:00:02;;;;;;;0.30;0.20;;;3.40;99.90;;;;;;5047618;28;20465;-85
2022/04/10 06:02:29;;;;;;;0.30;0.13;;;3.50;99.90;;;;;;5054195;28;20491;-85
2022/04/10 06:04:56;;;;;;;0.30;0.10;;;3.50;99.90;;;;;;5043804;28;20595;-85
2022/04/10 06:07:24;;;;;;;0.30;0.10;;;3.60;99.90;;;;;;5036506;28;20920;-86
2022/04/10 06:09:57;;;;;;;0.30;0.10;;;3.60;99.90;;;;;;5035995;28;20456;-87
2022/04/10 06:12:24;;;;;;;0.30;0.10;;;3.70;99.90;;;;;;5048411;28;20951;-86
2022/04/10 06:14:51;;;;;;;0.30;0.10;;;3.80;99.90;;;;;;5059122;28;20599;-86
2022/04/10 06:17:19;;;;;;;0.30;0.10;;;4.00;99.90;;;;;;5047097;28;20465;-85
2022/04/10 06:19:46;;;;;;;0.30;0.10;;;4.20;99.90;;;;;;5050733;28;20485;-84
2022/04/10 06:22:14;;;;;;;0.30;0.20;;;4.30;99.90;;;;;;5049519;28;20494;-84
2022/04/10 06:24:41;;;;;;;0.30;0.10;;;4.40;99.90;;;;;;5048270;28;20827;-87
2022/04/10 06:27:08;;;;;;;0.30;0.10;;;4.30;99.90;;;;;;5046849;28;20460;-86
2022/04/10 06:29:35;;;;;;;0.30;0.10;;;4.20;99.90;;;;;;5043796;28;20519;-85
2022/04/10 06:32:02;;;;;;;0.30;0.30;;;4.00;99.90;;;;;;5044839;28;20479;-85
2022/04/10 06:34:31;;;;;;;0.30;0.10;;;4.00;99.90;;;;;;5044661;28;20575;-86
2022/04/10 06:36:58;;;;;;;0.30;0.10;;;4.00;99.90;;;;;;5049926;28;20468;-86
2022/04/10 06:39:25;;;;;;;0.30;0.20;;;3.90;99.90;;;;;;5044500;28;20464;-86
2022/04/10 06:41:52;;;;;;;0.30;0.20;;;4.00;99.90;;;;;;5055329;28;20488;-82
2022/04/10 06:44:19;;;;;;;0.30;0.10;;;4.00;99.90;;;;;;5046546;28;20467;-83
2022/04/10 06:46:47;;;;;;;0.60;0.50;;;3.90;99.90;;;;;;5052513;28;20480;-87
2022/04/10 06:49:14;;;;;;;0.30;0.10;;;4.00;99.90;;;;;;5052805;28;20512;-87
2022/04/10 06:51:42;;;;;;;0.30;0.10;;;3.90;99.90;;;;;;5051527;28;20459;-85
2022/04/10 06:54:09;;;;;;;0.50;0.50;;;3.90;99.90;;;;;;5054569;28;21018;-86
2022/04/10 06:56:36;;;;;;;0.60;0.53;;;3.80;99.90;;;;;;5049277;28;20488;-86
2022/04/10 06:59:04;;;;;;;0.30;0.10;;;3.70;99.90;;;;;;5050340;28;20475;-85
2022/04/10 07:01:31;;;;;;;0.30;0.20;;;3.80;99.90;;;;;;5052430;28;20468;-83
2022/04/10 07:03:58;;;;;;;0.30;0.10;;;4.10;99.90;;;;;;5053884;28;21138;-84
2022/04/10 07:06:25;;;;;;;0.30;0.10;;;4.30;99.90;;;;;;5055663;28;20456;-83
2022/04/10 07:08:53;;;;;;;0.30;0.13;;;4.60;99.90;;;;;;5059703;28;20526;-84
2022/04/10 07:11:20;;;;;;;0.30;0.20;;;4.70;99.90;;;;;;5049703;28;20487;-83
2022/04/10 07:13:47;;;;;;;0.30;0.10;;;4.80;99.90;;;;;;5039509;28;20876;-83
2022/04/10 07:16:14;;;;;;;0.30;0.20;;;4.90;99.90;;;;;;5060132;28;20450;-84
2022/04/10 07:18:41;;;;;;;1.30;1.30;;;5.10;99.90;;;;;;5054342;28;20467;-83
2022/04/10 07:21:08;;;;;;;0.30;0.10;;;5.10;99.90;;;;;;5048400;28;20534;-85
2022/04/10 07:23:43;;;;;;;0.30;0.20;;;5.30;99.90;;;;;;5057365;28;20479;-86
2022/04/10 07:26:13;;;;;;;0.30;0.20;;;5.60;99.90;;;;;;5055806;28;20458;-85
2022/04/10 07:28:41;;;;;;;0.40;0.30;;;6.10;99.90;;;;;;5051439;28;21243;-83
2022/04/10 07:31:08;;;;;;;0.30;0.10;;;6.00;99.90;;;;;;5043294;28;20465;-87
2022/04/10 07:33:35;;;;;;;0.30;0.20;;;5.70;99.90;;;;;;5037105;28;20984;-86
2022/04/10 07:36:03;;;;;;;0.30;0.10;;;5.70;99.90;;;;;;5042046;28;20768;-83
2022/04/10 07:38:29;;;;;;;0.80;0.57;;;5.90;99.90;;;;;;5039847;28;20523;-87
2022/04/10 07:40:56;;;;;;;0.30;0.20;;;6.40;99.90;;;;;;5045972;28;20939;-84
2022/04/10 07:43:25;;;;;;;0.30;0.10;;;6.50;99.90;;;;;;5052195;28;20500;-84
2022/04/10 07:48:38;;;;;;;2.07;0.63;;;6.60;99.90;;;;;;5052963;28;20553;-83
2022/04/10 07:51:07;;;;;;;0.30;0.20;;;6.30;99.90;;;;;;5053318;28;21051;-83
2022/04/10 07:53:34;;;;;;;0.47;0.40;;;6.20;99.90;;;;;;5054771;28;20968;-87
2022/04/10 07:56:01;;;;;;;0.30;0.10;;;6.20;99.90;;;;;;5049695;28;20468;-83
2022/04/10 07:58:30;;;;;;;0.30;0.10;;;6.00;99.90;;;;;;5046618;28;20518;-85
2022/04/10 08:00:57;;;;;;;0.30;0.10;;;5.90;99.90;;;;;;5057360;28;20464;-85
2022/04/10 08:03:24;;;;;;;0.40;0.20;;;6.00;99.90;;;;;;5047796;28;20539;-85
2022/04/10 08:05:52;;;;;;;0.30;0.20;;;5.80;99.90;;;;;;5051597;28;20546;-83
2022/04/10 08:08:18;;;;;;;0.30;0.20;;;5.70;99.90;;;;;;5047859;28;20546;-86
2022/04/10 08:10:46;;;;;;;0.30;0.20;;;5.80;99.90;;;;;;5044752;28;20488;-86
2022/04/10 08:13:13;;;;;;;0.30;0.20;;;6.10;99.90;;;;;;5048729;28;20469;-84
2022/04/10 08:15:41;;;;;;;0.30;0.20;;;6.20;99.90;;;;;;5047272;28;20449;-83
2022/04/10 08:18:09;;;;;;;0.30;0.10;;;6.20;99.90;;;;;;5043207;28;20457;-88
2022/04/10 08:20:36;;;;;;;0.87;0.87;;;6.20;99.90;;;;;;5040475;28;20511;-84
2022/04/10 08:23:03;;;;;;;0.30;0.10;;;6.20;99.90;;;;;;5051267;28;20840;-84
2022/04/10 08:25:30;;;;;;;0.63;0.53;;;5.90;99.90;;;;;;5048504;28;21027;-84
2022/04/10 08:27:57;;;;;;;0.30;0.10;;;5.80;99.90;;;;;;5045841;28;20465;-87
2022/04/10 08:30:24;;;;;;;0.40;0.30;;;6.10;99.90;;;;;;5046020;28;20460;-84
2022/04/10 08:32:52;;;;;;;0.83;0.77;;;6.00;99.90;;;;;;5056717;28;20468;-84
2022/04/10 08:35:19;;;;;;;0.30;0.20;;;5.90;99.90;;;;;;5044989;28;20526;-84
2022/04/10 08:37:46;;;;;;;0.40;0.23;;;5.60;99.90;;;;;;5048348;28;20509;-86
2022/04/10 08:40:14;;;;;;;0.30;0.20;;;5.40;99.90;;;;;;5050392;28;20464;-88
2022/04/10 08:42:41;;;;;;;0.40;0.30;;;5.30;99.90;;;;;;5049803;28;21054;-85
2022/04/10 08:45:09;;;;;;;0.30;0.20;;;5.40;99.90;;;;;;5046583;28;20476;-84
2022/04/10 08:47:38;;;;;;;0.30;0.10;;;5.60;99.90;;;;;;5047237;28;20467;-84
2022/04/10 08:50:08;;;;;;;0.30;0.10;;;5.90;99.90;;;;;;5048547;28;20553;-87
2022/04/10 08:52:36;;;;;;;0.30;0.10;;;6.10;99.90;;;;;;5050988;28;20467;-84
2022/04/10 08:55:03;;;;;;;0.30;0.10;;;6.20;99.90;;;;;;5048830;28;20456;-84
2022/04/10 08:57:31;;;;;;;0.30;0.20;;;6.50;99.90;;;;;;5043894;28;20512;-87
2022/04/10 08:59:59;;;;;;;0.30;0.10;;;6.90;99.90;;;;;;5043733;28;20467;-86
2022/04/10 09:02:26;;;;;;;0.30;0.20;;;6.70;99.90;;;;;;5051695;28;20524;-85
2022/04/10 09:04:53;;;;;;;0.30;0.10;;;6.30;99.90;;;;;;5048249;28;20468;-82
2022/04/10 09:07:25;;;;;;;0.30;0.20;;;5.90;99.90;;;;;;5040898;28;20470;-82
2022/04/10 09:09:56;;;;;;;0.40;0.20;;;5.70;99.90;;;;;;5046841;28;20462;-84
2022/04/10 09:12:24;;;;;;;0.30;0.10;;;5.60;99.90;;;;;;5050278;28;20469;-85
2022/04/10 09:14:51;;;;;;;0.30;0.10;;;5.60;99.90;;;;;;5044631;28;20512;-82
2022/04/10 09:17:19;;;;;;;0.30;0.20;;;5.20;99.90;;;;;;5039221;28;20476;-86
2022/04/10 09:19:48;;;;;;;4.00;2.37;;;4.90;99.90;;;;;;5044866;28;20561;-89
2022/04/10 09:22:27;;;;;;;0.50;0.50;;;4.60;99.90;;;;;;5043015;28;20526;-85
2022/04/10 09:25:09;;;;;;;0.30;0.20;;;4.30;99.90;;;;;;5040053;28;20882;-85
2022/04/10 09:27:39;;;;;;;0.40;0.30;;;4.20;99.90;;;;;;5045351;28;21014;-86
2022/04/10 09:30:08;;;;;;;0.93;0.93;;;4.20;99.90;;;;;;5050050;28;20524;-87
2022/04/10 09:32:40;;;;;;;0.30;0.10;;;4.20;99.90;;;;;;5048071;28;20946;-84
2022/04/10 09:35:08;;;;;;;0.30;0.20;;;4.20;99.90;;;;;;5055663;28;20461;-85
2022/04/10 09:37:45;;;;;;;0.30;0.10;;;4.40;99.90;;;;;;5050630;28;20559;-85
2022/04/10 09:40:31;;;;;;;0.30;0.20;;;4.60;99.90;;;;;;5058570;28;20490;-83
2022/04/10 09:43:04;;;;;;;0.30;0.20;;;4.80;99.90;;;;;;5068460;28;20987;-82
2022/04/10 09:45:34;;;;;;;0.30;0.20;;;5.00;99.90;;;;;;5068985;28;20461;-82
2022/04/10 09:48:19;;;;;;;0.30;0.10;;;5.80;99.90;;;;;;5060426;28;20457;-85
2022/04/10 09:50:46;;;;;;;0.30;0.10;;;6.10;99.90;;;;;;5056700;28;20461;-82
2022/04/10 09:53:15;;;;;;;0.30;0.20;;;5.90;99.90;;;;;;5046269;28;20818;-83
2022/04/10 09:55:43;;;;;;;0.30;0.10;;;6.30;99.90;;;;;;5049711;28;20468;-84
2022/04/10 09:58:11;;;;;;;0.30;0.20;;;6.70;99.90;;;;;;5045202;28;22180;-82
2022/04/10 10:00:40;;;;;;;0.30;0.10;;;6.90;99.90;;;;;;5044947;28;20464;-86
2022/04/10 10:03:09;;;;;;;3.53;1.20;;;6.50;99.90;;;;;;5032780;28;21005;-86
2022/04/10 10:05:43;;;;;;;0.60;0.20;;;6.10;99.90;;;;;;5044339;28;20566;-86
2022/04/10 10:08:11;;;;;;;0.30;0.10;;;6.00;99.90;;;;;;5042963;28;20448;-84
2022/04/10 10:10:40;;;;;;;0.30;0.10;;;6.00;99.90;;;;;;5046773;28;20515;-85
2022/04/10 10:13:08;;;;;;;0.97;0.97;;;6.20;99.90;;;;;;5044400;28;20498;-84
2022/04/10 10:15:36;;;;;;;0.30;0.20;;;6.40;99.90;;;;;;5046495;28;20998;-84
2022/04/10 10:18:05;;;;;;;0.30;0.10;;;6.50;99.10;;;;;;5049389;28;20510;-84
2022/04/10 10:20:34;;;;;;;0.40;0.30;;;7.00;99.80;;;;;;5052657;28;20541;-85
2022/04/10 10:23:03;;;;;;;0.30;0.20;;;7.30;98.80;;;;;;5039342;28;20485;-85
2022/04/10 10:25:36;;;;;;;1.23;0.60;;;7.50;99.20;;;;;;5050620;28;20493;-84
2022/04/10 10:28:33;;;;;;;0.37;0.20;;;7.30;97.40;;;;;;5045001;28;20512;-84
2022/04/10 10:31:34;;;;;;;0.50;0.50;;;6.60;96.40;;;;;;5046259;28;20944;-84
2022/04/10 10:34:05;;;;;;;0.47;0.47;;;6.60;96.90;;;;;;5039482;28;20457;-86
2022/04/10 10:36:32;;;;;;;0.30;0.20;;;6.80;95.50;;;;;;5046437;28;20474;-86
2022/04/10 10:39:00;;;;;;;0.30;0.10;;;6.70;93.40;;;;;;5065038;28;20926;-85
2022/04/10 10:41:34;;;;;;;0.30;0.10;;;6.70;94.70;;;;;;5047158;28;20452;-84
2022/04/10 10:44:41;;;;;;;0.40;0.20;;;7.00;93.90;;;;;;5051141;28;20482;-84
2022/04/10 10:47:23;;;;;;;0.30;0.10;;;7.30;93.70;;;;;;5045166;28;20803;-87
2022/04/10 10:49:52;;;;;;;0.40;0.33;;;7.80;93.60;;;;;;5045328;28;20459;-86
2022/04/10 10:52:20;;;;;;;0.40;0.33;;;7.50;92.20;;;;;;5049485;28;20936;-89
2022/04/10 10:54:53;;;;;;;1.63;0.70;;;7.10;93.40;;;;;;5049028;28;20458;-84
2022/04/10 10:57:24;;;;;;;0.37;0.20;;;6.40;93.60;;;;;;5046761;28;21006;-84
2022/04/10 10:59:52;;;;;;;0.30;0.20;;;6.10;94.90;;;;;;5039903;28;20474;-85
2022/04/10 11:02:21;;;;;;;0.40;0.20;;;5.90;93.70;;;;;;5038148;28;20471;-84
2022/04/10 11:04:50;;;;;;;0.30;0.20;;;5.40;93.80;;;;;;5041663;28;20487;-84
2022/04/10 11:07:27;;;;;;;0.30;0.10;;;5.40;94.90;;;;;;5049064;28;20549;-87
2022/04/10 11:09:59;;;;;;;0.30;0.10;;;6.10;95.90;;;;;;5049405;28;20873;-86
2022/04/10 11:12:33;;;;;;;0.40;0.20;;;6.80;95.50;;;;;;5051791;28;20460;-86
2022/04/10 11:15:06;;;;;;;0.30;0.20;;;6.90;92.80;;;;;;5042234;28;20475;-86
2022/04/10 11:17:34;;;;;;;0.30;0.10;;;7.10;94.50;;;;;;5042301;28;20468;-87
2022/04/10 11:20:04;;;;;;;0.40;0.27;;;6.70;90.30;;;;;;5060500;28;21136;-85
2022/04/10 11:22:34;;;;;;;0.30;0.20;;;6.80;91.50;;;;;;5039313;28;20908;-84
2022/04/10 11:25:05;;;;;;;0.30;0.10;;;6.60;91.10;;;;;;5043301;28;20490;-84
2022/04/10 11:27:48;;;;;;;0.30;0.10;;;6.60;91.80;;;;;;5047571;28;20464;-85
2022/04/10 11:30:20;;;;;;;0.30;0.20;;;6.60;92.70;;;;;;5043910;28;21120;-84
2022/04/10 11:32:50;;;;;;;0.30;0.20;;;6.60;92.00;;;;;;5044925;28;20457;-84
2022/04/10 11:35:22;;;;;;;0.30;0.10;;;6.50;92.90;;;;;;5047830;28;20456;-84
2022/04/10 11:37:51;;;;;;;0.40;0.30;;;6.50;94.20;;;;;;5051419;28;20928;-84
2022/04/10 11:40:20;;;;;;;0.60;0.60;;;6.60;90.90;;;;;;5038899;28;20469;-84
2022/04/10 11:42:47;;;;;;;0.30;0.20;;;7.10;87.10;;;;;;5044631;28;20520;-84
2022/04/10 11:45:14;;;;;;;0.30;0.13;;;7.50;87.60;;;;;;5046654;28;20482;-84
2022/04/10 11:47:42;;;;;;;0.30;0.20;;;7.70;85.80;;;;;;5047320;28;20467;-85
2022/04/10 11:50:13;;;;;;;0.30;0.10;;;7.70;85.00;;;;;;5044021;28;20459;-84
2022/04/10 11:52:41;;;;;;;0.30;0.10;;;7.50;83.40;;;;;;5049763;28;20460;-85
2022/04/10 11:55:10;;;;;;;0.30;0.10;;;7.60;84.90;;;;;;5049798;28;20478;-85
2022/04/10 11:57:40;;;;;;;0.30;0.10;;;7.50;84.60;;;;;;5050626;28;20845;-84
2022/04/10 12:00:10;;;;;;;0.30;0.20;;;7.80;85.60;;;;;;5049161;28;20469;-86
2022/04/10 12:02:39;;;;;;;0.30;0.10;;;8.20;90.70;;;;;;5046317;28;20613;-85
2022/04/10 12:05:09;;;;;;;0.30;0.20;;;8.40;85.60;;;;;;5047479;28;20482;-87
2022/04/10 12:07:41;;;;;;;0.30;0.20;;;8.50;80.20;;;;;;5040356;28;20453;-85
2022/04/10 12:10:08;;;;;;;0.40;0.37;;;8.20;81.80;;;;;;5042461;28;20485;-85
2022/04/10 12:12:37;;;;;;;0.30;0.20;;;7.90;86.80;;;;;;5045696;28;21097;-85
2022/04/10 12:15:15;;;;;;;0.40;0.20;;;7.90;88.70;;;;;;5045578;28;20990;-86
2022/04/10 12:17:42;;;;;;;0.30;0.10;;;8.30;91.00;;;;;;5053757;28;20544;-84
2022/04/10 12:20:10;;;;;;;0.30;0.10;;;8.20;86.40;;;;;;5056649;28;20503;-83
2022/04/10 12:22:39;;;;;;;0.50;0.20;;;8.10;85.60;;;;;;5048800;28;20944;-87
2022/04/10 12:25:07;;;;;;;0.40;0.30;;;8.00;84.30;;;;;;5040572;28;21052;-85
2022/04/10 12:27:34;;;;;;;0.40;0.30;;;7.90;85.30;;;;;;5046337;28;20540;-85
2022/04/10 12:30:09;;;;;;;0.30;0.10;;;8.00;83.20;;;;;;5047407;28;20458;-85
2022/04/10 12:32:36;;;;;;;0.30;0.10;;;7.50;81.50;;;;;;5048095;28;20451;-86
2022/04/10 12:35:10;;;;;;;0.30;0.20;;;7.00;79.40;;;;;;5055701;28;20465;-85
2022/04/10 12:37:46;;;;;;;0.50;0.23;;;7.20;84.90;;;;;;5049245;28;21024;-83
2022/04/10 12:40:13;;;;;;;0.30;0.10;;;7.60;83.70;;;;;;5051024;28;20476;-84
2022/04/10 12:42:42;;;;;;;0.30;0.10;;;8.00;82.30;;;;;;5054008;28;20524;-85
2022/04/10 12:45:11;;;;;;;1.90;0.50;;;8.30;84.80;;;;;;5043769;28;20577;-85
2022/04/10 12:47:43;;;;;;;0.30;0.20;;;8.70;84.40;;;;;;5050986;28;20460;-85
2022/04/10 12:50:13;;;;;;;0.40;0.20;;;8.60;81.30;;;;;;5042456;28;20510;-87
2022/04/10 12:52:42;;;;;;;0.30;0.10;;;8.70;83.80;;;;;;5055053;28;20513;-85
2022/04/10 12:55:21;;;;;;;0.70;0.70;;;8.70;81.00;;;;;;5050236;28;20460;-85
2022/04/10 12:57:55;;;;;;;0.40;0.20;;;8.40;82.80;;;;;;5055480;28;20945;-88
2022/04/10 13:00:31;;;;;;;0.40;0.30;;;8.20;82.70;;;;;;5048458;28;20985;-85
2022/04/10 13:03:01;;;;;;;0.30;0.20;;;8.40;83.80;;;;;;5041437;28;21001;-85
2022/04/10 13:05:29;;;;;;;0.30;0.20;;;8.60;84.30;;;;;;5047045;28;20482;-86
2022/04/10 13:08:04;;;;;;;0.30;0.20;;;8.70;83.80;;;;;;5050179;28;20468;-85